WetterOnline ( https://www.wetteronline.de )

Wetter aktuell Bad Salzuflen

Aktuelles Wetter: Bad Salzuflen (139m)

6-stündlich | Neueste Meldungen
Ortszeit Temperatur Wetter
So, 07.03. 13:00 2.9° C bedeckt
So, 07.03. 7:00 -1.7° C bedeckt
So, 07.03. 1:00 -1.1° C wolkenlos
Sa, 06.03. 19:00 3.8° C bedeckt
Sa, 06.03. 13:00 5.1° C bewölkt
Sa, 06.03. 7:00 -4.6° C leicht bewölkt
Sa, 06.03. 1:00 -2.3° C wolkenlos
Fr, 05.03. 19:00 1.6° C wolkenlos
Ortszeit Temperatur Wetter
So, 07.03. 13:00 2.9° C bedeckt
So, 07.03. 12:50 2.9° C bedeckt
So, 07.03. 12:40 3.1° C bedeckt
So, 07.03. 12:30 3.0° C bedeckt
So, 07.03. 12:20 3.0° C bedeckt
So, 07.03. 12:10 2.8° C bedeckt
So, 07.03. 12:00 2.7° C bedeckt
So, 07.03. 11:30 2.4° C bedeckt
So, 07.03. 11:00 1.9° C bedeckt
So, 07.03. 10:30 1.5° C bedeckt
So, 07.03. 10:00 0.6° C bedeckt
Ortszeit Relative Feuchte Sichtweite
So, 07.03. 13:00 59% >70 km
So, 07.03. 7:00 90% 21 km
So, 07.03. 1:00 87% 26 km
Sa, 06.03. 19:00 69% >70 km
Sa, 06.03. 13:00 56% 40 km
Sa, 06.03. 7:00 86% 30 km
Sa, 06.03. 1:00 67% 45 km
Fr, 05.03. 19:00 46% >70 km
Ortszeit Relative Feuchte Sichtweite
So, 07.03. 13:00 59% >70 km
So, 07.03. 12:50 59% -
So, 07.03. 12:40 60% -
So, 07.03. 12:30 60% >70 km
So, 07.03. 12:20 60% -
So, 07.03. 12:10 61% -
So, 07.03. 12:00 63% 65 km
So, 07.03. 11:30 67% 55 km
So, 07.03. 11:00 74% 40 km
So, 07.03. 10:30 77% 40 km
So, 07.03. 10:00 83% 28 km
Ortszeit Niederschlagsmenge Niederschlagsart
So, 07.03. 13:00 0.0 l/m2 in 6 Std. -
So, 07.03. 7:00 0.0 l/m2 in 12 Std. -
So, 07.03. 1:00 0.0 l/m2 in 6 Std. -
Sa, 06.03. 19:00 0.0 l/m2 in 12 Std. -
Sa, 06.03. 13:00 0.0 l/m2 in 6 Std. -
Sa, 06.03. 7:00 0.0 l/m2 in 12 Std. -
Sa, 06.03. 1:00 0.0 l/m2 in 6 Std. -
Fr, 05.03. 19:00 0.0 l/m2 in 12 Std. -
Ortszeit Niederschlagsmenge Niederschlagsart
So, 07.03. 13:00 0.0 l/m2 in 1 Std. -
So, 07.03. 12:50 keine Meldung -
So, 07.03. 12:40 keine Meldung -
So, 07.03. 12:30 0.0 l/m2 in 1 Std. -
So, 07.03. 12:20 keine Meldung -
So, 07.03. 12:10 keine Meldung -
So, 07.03. 12:00 0.0 l/m2 in 1 Std. -
So, 07.03. 11:30 0.0 l/m2 in 1 Std. -
So, 07.03. 11:00 0.0 l/m2 in 1 Std. -
So, 07.03. 10:30 0.0 l/m2 in 1 Std. -
So, 07.03. 10:00 0.0 l/m2 in 1 Std. -
Ortszeit Stärke Spitze Richtung
km/h Bft. km/h Grad Sektor
So, 07.03. 13:00 13 3 24 310° NW
So, 07.03. 7:00 4 1 7 220° SW
So, 07.03. 1:00 4 1 11 30° NO
Sa, 06.03. 19:00 7 2 18 250° W
Sa, 06.03. 13:00 11 2 25 280° W
Sa, 06.03. 7:00 0 0 7 - -
Sa, 06.03. 1:00 0 0 7 - -
Fr, 05.03. 19:00 7 2 22 310° NW
Ortszeit Stärke Spitze Richtung
km/h Bft. km/h Grad Sektor
So, 07.03. 13:00 13 3 24 310° NW
So, 07.03. 12:50 13 3 - 310° NW
So, 07.03. 12:40 13 3 - 290° W
So, 07.03. 12:30 7 2 24 280° W
So, 07.03. 12:20 7 2 - 280° W
So, 07.03. 12:10 11 2 - 280° W
So, 07.03. 12:00 7 2 19 280° W
So, 07.03. 11:30 7 2 18 290° W
So, 07.03. 11:00 7 2 18 280° W
So, 07.03. 10:30 7 2 14 270° W
So, 07.03. 10:00 6 1 9 200° S
Ortszeit Untergrenze Bedeckung Gattung
total tief tief mittel hoch
So, 07.03. 13:00 930 m 8/8 8/8 - - -
So, 07.03. 7:00 1080 m 8/8 8/8 - - -
So, 07.03. 1:00 - 0/8 0/8 - - -
Sa, 06.03. 19:00 1230 m 8/8 8/8 - - -
Sa, 06.03. 13:00 960 m 7/8 7/8 - - -
Sa, 06.03. 7:00 930 m 4/8 4/8 - - -
Sa, 06.03. 1:00 - 0/8 0/8 - - -
Fr, 05.03. 19:00 - 0/8 0/8 - - -
Ortszeit Bedeckungsgrad in Achtel und Wolkenuntergrenze
So, 07.03. 13:00 8(930m)
So, 07.03. 12:50 8(930m)
So, 07.03. 12:40 8(960m)
So, 07.03. 12:30 8(990m)
So, 07.03. 12:20 8(990m)
So, 07.03. 12:10 8(960m)
So, 07.03. 12:00 8(930m)
So, 07.03. 11:30 8(960m)
So, 07.03. 11:00 8(960m)
So, 07.03. 10:30 8(1020m)
So, 07.03. 10:00 8(1050m)
Ortszeit Luftdruck NN (hPa) Tendenz (hPa in 3 Std.)
So, 07.03. 13:00 1025 - 1,0
So, 07.03. 7:00 1027 - 1,0
So, 07.03. 1:00 1030 - 1,3
Sa, 06.03. 19:00 1031 - 0,9
Sa, 06.03. 13:00 1034 - 0,4
Sa, 06.03. 7:00 1035 + 0,6
Sa, 06.03. 1:00 1034 + 1,1
Fr, 05.03. 19:00 1032 + 1,5
Ortszeit Luftdruck NN (hPa) Tendenz (hPa in 3 Std.)
So, 07.03. 13:00 1025 - 1,0
So, 07.03. 12:50 1025 keine Meldung
So, 07.03. 12:40 1026 keine Meldung
So, 07.03. 12:30 1026 - 0,9
So, 07.03. 12:20 1026 keine Meldung
So, 07.03. 12:10 1026 keine Meldung
So, 07.03. 12:00 1026 - 0,8
So, 07.03. 11:30 1026 - 0,9
So, 07.03. 11:00 1026 - 0,8
So, 07.03. 10:30 1026 - 0,7
So, 07.03. 10:00 1027 - 0,5
Ortszeit Schneehöhe (cm)
So, 07.03. 13:00 0
So, 07.03. 7:00 0
So, 07.03. 1:00 0
Sa, 06.03. 19:00 0
Sa, 06.03. 13:00 0
Sa, 06.03. 7:00 0
Sa, 06.03. 1:00 0
Fr, 05.03. 19:00 0
Ortszeit Schneehöhe (cm)
So, 07.03. 13:00 0
So, 07.03. 12:50 0
So, 07.03. 12:40 0
So, 07.03. 12:30 0
So, 07.03. 12:20 0
So, 07.03. 12:10 0
So, 07.03. 12:00 0
So, 07.03. 11:30 0
So, 07.03. 11:00 0
So, 07.03. 10:30 0
So, 07.03. 10:00 0
Link zu dieser Seite / Seite empfehlen

Das Wetter in ...